Time;durP1;ratioP1;P1;durP2;ratioP2;P2;SDS_P1;SDS_P2;PMS_P1;PMS_P2;Temp;Humidity;BMP_temperature;BMP_pressure;BME280_temperature;BME280_humidity;BME280_pressure;Samples;Min_cycle;Max_cycle;Signal;HPM_P1;HPM_P2
2019/07/14 00:01:48;;;;;;;3.92;2.67;;;;;;;21.84;53.63;100661.20;;;;-49
2019/07/14 00:04:48;;;;;;;2.88;2.63;;;;;;;21.84;53.66;100661.64;;;;-49
2019/07/14 00:07:48;;;;;;;2.95;2.57;;;;;;;21.84;53.64;100654.37;;;;-49
2019/07/14 00:10:48;;;;;;;2.95;2.65;;;;;;;21.83;53.64;100655.11;;;;-49
2019/07/14 00:13:48;;;;;;;3.63;2.53;;;;;;;21.84;53.62;100653.70;;;;-50
2019/07/14 00:16:48;;;;;;;2.89;2.67;;;;;;;21.83;53.65;100655.11;;;;-50
2019/07/14 00:19:48;;;;;;;2.94;2.65;;;;;;;21.83;53.64;100652.76;;;;-48
2019/07/14 00:22:48;;;;;;;2.55;2.35;;;;;;;21.83;53.65;100653.59;;;;-49
2019/07/14 00:25:48;;;;;;;2.69;2.49;;;;;;;21.83;53.58;100651.58;;;;-50
2019/07/14 00:28:47;;;;;;;2.78;2.53;;;;;;;21.82;53.64;100645.16;;;;-49
2019/07/14 00:31:48;;;;;;;2.88;2.68;;;;;;;21.81;53.59;100651.17;;;;-49
2019/07/14 00:34:48;;;;;;;4.47;2.70;;;;;;;21.81;53.61;100647.23;;;;-50
2019/07/14 00:37:48;;;;;;;2.82;2.62;;;;;;;21.81;53.61;100645.05;;;;-51
2019/07/14 00:40:48;;;;;;;2.70;2.50;;;;;;;21.81;53.65;100640.51;;;;-49
2019/07/14 00:43:48;;;;;;;2.91;2.66;;;;;;;21.81;53.62;100637.98;;;;-49
2019/07/14 00:46:48;;;;;;;2.77;2.57;;;;;;;21.81;53.61;100634.35;;;;-49
2019/07/14 00:49:48;;;;;;;2.81;2.61;;;;;;;21.80;53.59;100635.33;;;;-48
2019/07/14 00:52:48;;;;;;;2.97;2.64;;;;;;;21.79;53.61;100639.42;;;;-49
2019/07/14 00:55:48;;;;;;;2.79;2.59;;;;;;;21.79;53.63;100644.47;;;;-49
2019/07/14 00:58:48;;;;;;;2.87;2.65;;;;;;;21.79;53.62;100643.46;;;;-49
2019/07/14 01:01:48;;;;;;;2.65;2.39;;;;;;;21.79;53.59;100645.64;;;;-49
2019/07/14 01:04:48;;;;;;;2.75;2.55;;;;;;;21.79;53.56;100639.66;;;;-49
2019/07/14 01:07:49;;;;;;;2.61;2.41;;;;;;;21.78;53.58;100636.36;;;;-50
2019/07/14 01:10:48;;;;;;;3.36;2.49;;;;;;;21.78;53.54;100635.02;;;;-48
2019/07/14 01:13:48;;;;;;;3.05;2.51;;;;;;;21.78;53.60;100635.02;;;;-49
2019/07/14 01:16:48;;;;;;;2.40;2.20;;;;;;;21.78;53.51;100634.41;;;;-49
2019/07/14 01:19:48;;;;;;;2.61;2.41;;;;;;;21.77;53.60;100628.76;;;;-49
2019/07/14 01:22:48;;;;;;;2.84;2.61;;;;;;;21.77;53.55;100631.28;;;;-49
2019/07/14 01:25:48;;;;;;;2.71;2.51;;;;;;;21.77;53.58;100628.09;;;;-49
2019/07/14 01:28:48;;;;;;;2.51;2.31;;;;;;;21.77;53.57;100623.72;;;;-49
2019/07/14 01:31:48;;;;;;;2.55;2.35;;;;;;;21.77;53.58;100622.03;;;;-49
2019/07/14 01:34:47;;;;;;;2.83;2.53;;;;;;;21.76;53.55;100620.37;;;;-50
2019/07/14 01:37:47;;;;;;;2.76;2.56;;;;;;;21.76;53.55;100618.87;;;;-49
2019/07/14 01:40:48;;;;;;;2.60;2.40;;;;;;;21.76;53.57;100619.38;;;;-49
2019/07/14 01:43:47;;;;;;;2.70;2.50;;;;;;;21.75;53.55;100614.30;;;;-51
2019/07/14 01:46:48;;;;;;;2.72;2.48;;;;;;;21.75;53.54;100619.27;;;;-49
2019/07/14 01:49:48;;;;;;;2.70;2.50;;;;;;;21.75;53.57;100623.03;;;;-49
2019/07/14 01:52:48;;;;;;;2.68;2.48;;;;;;;21.75;53.58;100622.36;;;;-49
2019/07/14 01:55:48;;;;;;;2.72;2.50;;;;;;;21.74;53.60;100621.08;;;;-49
2019/07/14 01:58:49;;;;;;;2.91;2.63;;;;;;;21.74;53.55;100622.77;;;;-49
2019/07/14 02:01:48;;;;;;;2.69;2.47;;;;;;;21.74;53.52;100622.09;;;;-50
2019/07/14 02:04:48;;;;;;;3.01;2.57;;;;;;;21.75;53.53;100622.29;;;;-49
2019/07/14 02:07:47;;;;;;;2.64;2.24;;;;;;;21.74;53.49;100621.85;;;;-49
2019/07/14 02:10:48;;;;;;;2.63;2.43;;;;;;;21.74;53.50;100619.40;;;;-49
2019/07/14 02:13:48;;;;;;;2.62;2.42;;;;;;;21.74;53.50;100617.88;;;;-49
2019/07/14 02:16:47;;;;;;;2.71;2.51;;;;;;;21.73;53.53;100622.32;;;;-49
2019/07/14 02:19:48;;;;;;;2.61;2.41;;;;;;;21.73;53.53;100621.72;;;;-50
2019/07/14 02:22:48;;;;;;;2.99;2.51;;;;;;;21.73;53.47;100625.17;;;;-49
2019/07/14 02:25:48;;;;;;;2.59;2.39;;;;;;;21.73;53.49;100624.84;;;;-49
2019/07/14 02:28:48;;;;;;;2.55;2.35;;;;;;;21.72;53.50;100627.73;;;;-49
2019/07/14 02:31:48;;;;;;;2.59;2.31;;;;;;;21.72;53.48;100627.49;;;;-49
2019/07/14 02:34:49;;;;;;;2.62;2.42;;;;;;;21.73;53.45;100629.01;;;;-49
2019/07/14 02:37:48;;;;;;;3.01;2.40;;;;;;;21.72;53.53;100625.48;;;;-50
2019/07/14 02:40:48;;;;;;;2.60;2.40;;;;;;;21.71;53.50;100618.95;;;;-49
2019/07/14 02:43:48;;;;;;;2.56;2.35;;;;;;;21.71;53.48;100610.95;;;;-49
2019/07/14 02:46:47;;;;;;;2.49;2.29;;;;;;;21.71;53.51;100611.62;;;;-51
2019/07/14 02:49:48;;;;;;;2.57;2.37;;;;;;;21.72;53.47;100612.83;;;;-50
2019/07/14 02:52:48;;;;;;;2.60;2.40;;;;;;;21.70;53.51;100611.18;;;;-49
2019/07/14 02:55:48;;;;;;;2.57;2.37;;;;;;;21.70;53.45;100607.65;;;;-49
2019/07/14 02:58:48;;;;;;;2.73;2.39;;;;;;;21.70;53.47;100609.94;;;;-50
2019/07/14 03:01:48;;;;;;;2.65;2.45;;;;;;;21.70;53.45;100608.48;;;;-49
2019/07/14 03:04:48;;;;;;;2.70;2.50;;;;;;;21.70;53.45;100607.48;;;;-49
2019/07/14 03:07:48;;;;;;;2.47;2.25;;;;;;;21.71;53.44;100607.92;;;;-51
2019/07/14 03:10:47;;;;;;;3.06;2.49;;;;;;;21.70;53.44;100610.23;;;;-49
2019/07/14 03:13:48;;;;;;;2.71;2.50;;;;;;;21.70;53.45;100606.23;;;;-49
2019/07/14 03:16:48;;;;;;;2.59;2.39;;;;;;;21.70;53.44;100604.22;;;;-49
2019/07/14 03:19:48;;;;;;;2.56;2.36;;;;;;;21.70;53.50;100600.48;;;;-49
2019/07/14 03:22:47;;;;;;;2.51;2.31;;;;;;;21.69;53.47;100602.50;;;;-49
2019/07/14 03:25:48;;;;;;;2.64;2.43;;;;;;;21.69;53.45;100605.59;;;;-50
2019/07/14 03:28:47;;;;;;;2.60;2.40;;;;;;;21.70;53.44;100603.52;;;;-49
2019/07/14 03:31:48;;;;;;;2.58;2.38;;;;;;;21.69;53.43;100602.73;;;;-49
2019/07/14 03:34:48;;;;;;;2.64;2.44;;;;;;;21.69;53.45;100600.65;;;;-49
2019/07/14 03:37:48;;;;;;;2.75;2.55;;;;;;;21.68;53.43;100602.36;;;;-49
2019/07/14 03:40:49;;;;;;;2.36;2.17;;;;;;;21.67;53.46;100599.30;;;;-49
2019/07/14 03:43:48;;;;;;;2.62;2.25;;;;;;;21.68;53.42;100599.00;;;;-50
2019/07/14 03:46:48;;;;;;;2.47;2.26;;;;;;;21.68;53.43;100594.90;;;;-49
2019/07/14 03:49:47;;;;;;;2.48;2.28;;;;;;;21.68;53.42;100592.84;;;;-49
2019/07/14 03:52:47;;;;;;;2.51;2.31;;;;;;;21.67;53.43;100595.44;;;;-49
2019/07/14 03:55:48;;;;;;;2.72;2.52;;;;;;;21.67;53.47;100596.20;;;;-49
2019/07/14 03:58:47;;;;;;;2.57;2.37;;;;;;;21.67;53.42;100591.30;;;;-49
2019/07/14 04:01:49;;;;;;;2.53;2.33;;;;;;;21.66;53.43;100591.06;;;;-50
2019/07/14 04:04:48;;;;;;;2.54;2.34;;;;;;;21.67;53.34;100594.86;;;;-51
2019/07/14 04:07:48;;;;;;;2.57;2.37;;;;;;;21.67;53.43;100591.30;;;;-49
2019/07/14 04:10:48;;;;;;;2.62;2.42;;;;;;;21.67;53.42;100592.81;;;;-50
2019/07/14 04:13:48;;;;;;;2.64;2.44;;;;;;;21.66;53.38;100591.12;;;;-49
2019/07/14 04:16:48;;;;;;;2.59;2.39;;;;;;;21.65;53.39;100596.63;;;;-49
2019/07/14 04:19:48;;;;;;;3.10;2.43;;;;;;;21.66;53.39;100589.84;;;;-49
2019/07/14 04:22:48;;;;;;;2.88;2.43;;;;;;;21.66;53.40;100589.91;;;;-49
2019/07/14 04:25:47;;;;;;;2.53;2.33;;;;;;;21.66;53.40;100588.16;;;;-49
2019/07/14 04:28:48;;;;;;;2.51;2.31;;;;;;;21.65;53.41;100591.36;;;;-49
2019/07/14 04:31:48;;;;;;;2.63;2.43;;;;;;;21.65;53.38;100597.77;;;;-49
2019/07/14 04:34:48;;;;;;;2.49;2.29;;;;;;;21.64;53.36;100593.41;;;;-49
2019/07/14 04:37:48;;;;;;;2.55;2.35;;;;;;;21.64;53.40;100591.72;;;;-49
2019/07/14 04:40:48;;;;;;;2.75;2.55;;;;;;;21.65;53.38;100595.92;;;;-49
2019/07/14 04:43:48;;;;;;;2.81;2.49;;;;;;;21.64;53.35;100595.52;;;;-49
2019/07/14 04:46:48;;;;;;;2.65;2.43;;;;;;;21.65;53.36;100597.77;;;;-49
2019/07/14 04:49:48;;;;;;;2.69;2.48;;;;;;;21.64;53.34;100598.91;;;;-49
2019/07/14 04:52:48;;;;;;;2.87;2.33;;;;;;;21.64;53.36;100597.50;;;;-51
2019/07/14 04:55:48;;;;;;;2.53;2.33;;;;;;;21.63;53.34;100597.00;;;;-49
2019/07/14 04:58:48;;;;;;;2.52;2.32;;;;;;;21.64;53.37;100592.53;;;;-49
2019/07/14 05:01:48;;;;;;;2.64;2.40;;;;;;;21.63;53.34;100593.03;;;;-49
2019/07/14 05:04:48;;;;;;;2.63;2.33;;;;;;;21.63;53.34;100592.02;;;;-50
2019/07/14 05:07:47;;;;;;;2.46;2.26;;;;;;;21.63;53.38;100587.11;;;;-49
2019/07/14 05:10:48;;;;;;;2.47;2.27;;;;;;;21.63;53.32;100587.65;;;;-49
2019/07/14 05:13:48;;;;;;;2.47;2.27;;;;;;;21.63;53.37;100586.77;;;;-49
2019/07/14 05:16:48;;;;;;;2.49;2.25;;;;;;;21.63;53.32;100585.53;;;;-50
2019/07/14 05:19:48;;;;;;;2.53;2.33;;;;;;;21.62;53.31;100584.38;;;;-49
2019/07/14 05:22:48;;;;;;;2.33;2.13;;;;;;;21.62;53.32;100586.40;;;;-49
2019/07/14 05:25:48;;;;;;;2.57;2.37;;;;;;;21.62;53.36;100585.56;;;;-49
2019/07/14 05:28:48;;;;;;;2.65;2.45;;;;;;;21.61;53.39;100585.96;;;;-49
2019/07/14 05:31:48;;;;;;;2.47;2.27;;;;;;;21.61;53.37;100584.62;;;;-49
2019/07/14 05:34:48;;;;;;;2.55;2.35;;;;;;;21.61;53.38;100586.91;;;;-49
2019/07/14 05:37:47;;;;;;;2.95;2.51;;;;;;;21.61;53.41;100584.62;;;;-50
2019/07/14 05:40:48;;;;;;;3.45;2.56;;;;;;;21.61;53.39;100582.20;;;;-52
2019/07/14 05:43:47;;;;;;;2.49;2.29;;;;;;;21.61;53.36;100581.25;;;;-49
2019/07/14 05:46:48;;;;;;;2.66;2.46;;;;;;;21.61;53.39;100586.13;;;;-49
2019/07/14 05:49:48;;;;;;;2.61;2.41;;;;;;;21.61;53.35;100585.96;;;;-49
2019/07/14 05:52:48;;;;;;;2.73;2.53;;;;;;;21.61;53.35;100588.65;;;;-49
2019/07/14 05:55:48;;;;;;;2.60;2.40;;;;;;;21.61;53.39;100588.98;;;;-50
2019/07/14 05:58:48;;;;;;;2.45;2.27;;;;;;;21.60;53.35;100589.82;;;;-49
2019/07/14 06:01:48;;;;;;;2.70;2.50;;;;;;;21.61;53.37;100593.45;;;;-49
2019/07/14 06:04:49;;;;;;;2.72;2.51;;;;;;;21.60;53.38;100594.70;;;;-49
2019/07/14 06:07:48;;;;;;;2.69;2.49;;;;;;;21.60;53.39;100596.55;;;;-49
2019/07/14 06:10:48;;;;;;;2.59;2.38;;;;;;;21.61;53.35;100596.72;;;;-49
2019/07/14 06:13:47;;;;;;;2.47;2.27;;;;;;;21.60;53.32;100596.23;;;;-49
2019/07/14 06:16:48;;;;;;;2.59;2.39;;;;;;;21.60;53.42;100600.78;;;;-50
2019/07/14 06:19:47;;;;;;;2.47;2.27;;;;;;;21.60;53.35;100600.95;;;;-49
2019/07/14 06:22:48;;;;;;;2.67;2.45;;;;;;;21.60;53.37;100603.13;;;;-49
2019/07/14 06:25:48;;;;;;;2.65;2.45;;;;;;;21.60;53.36;100605.52;;;;-49
2019/07/14 06:28:48;;;;;;;2.49;2.29;;;;;;;21.59;53.35;100606.83;;;;-49
2019/07/14 06:31:48;;;;;;;2.58;2.38;;;;;;;21.59;53.35;100610.36;;;;-49
2019/07/14 06:34:48;;;;;;;2.61;2.41;;;;;;;21.59;53.38;100608.47;;;;-49
2019/07/14 06:37:47;;;;;;;2.59;2.39;;;;;;;21.59;53.36;100611.59;;;;-49
2019/07/14 06:40:48;;;;;;;2.55;2.35;;;;;;;21.59;53.32;100616.20;;;;-50
2019/07/14 06:43:47;;;;;;;2.61;2.41;;;;;;;21.59;53.36;100618.05;;;;-49
2019/07/14 06:46:47;;;;;;;2.73;2.53;;;;;;;21.59;53.37;100622.36;;;;-49
2019/07/14 06:49:48;;;;;;;2.57;2.37;;;;;;;21.59;53.40;100621.52;;;;-49
2019/07/14 06:52:48;;;;;;;2.41;2.21;;;;;;;21.59;53.38;100619.39;;;;-49
2019/07/14 06:55:48;;;;;;;2.55;2.35;;;;;;;21.59;53.36;100626.05;;;;-50
2019/07/14 06:58:48;;;;;;;2.35;2.19;;;;;;;21.58;53.34;100630.59;;;;-49
2019/07/14 07:01:48;;;;;;;2.37;2.17;;;;;;;21.59;53.38;100630.32;;;;-50
2019/07/14 07:04:48;;;;;;;2.55;2.35;;;;;;;21.58;53.34;100632.80;;;;-49
2019/07/14 07:07:48;;;;;;;2.91;2.32;;;;;;;21.59;53.34;100636.20;;;;-49
2019/07/14 07:10:48;;;;;;;2.68;2.48;;;;;;;21.58;53.35;100637.17;;;;-48
2019/07/14 07:13:47;;;;;;;3.33;2.59;;;;;;;21.60;53.45;100638.80;;;;-52
2019/07/14 07:16:47;;;;;;;2.31;2.10;;;;;;;21.60;53.36;100637.89;;;;-51
2019/07/14 07:19:47;;;;;;;2.47;2.27;;;;;;;21.60;53.49;100642.59;;;;-52
2019/07/14 07:22:47;;;;;;;3.49;2.40;;;;;;;21.60;53.49;100645.96;;;;-51
2019/07/14 07:25:47;;;;;;;3.31;2.35;;;;;;;21.60;53.47;100644.24;;;;-52
2019/07/14 07:28:47;;;;;;;2.61;2.40;;;;;;;21.60;53.50;100644.91;;;;-52
2019/07/14 07:31:47;;;;;;;2.56;2.36;;;;;;;21.60;53.45;100645.15;;;;-52
2019/07/14 07:34:47;;;;;;;2.58;2.38;;;;;;;21.59;53.41;100641.34;;;;-51
2019/07/14 07:37:47;;;;;;;2.50;2.30;;;;;;;21.60;53.39;100648.01;;;;-51
2019/07/14 07:40:47;;;;;;;2.57;2.37;;;;;;;21.60;53.35;100648.05;;;;-57
2019/07/14 07:43:47;;;;;;;2.73;2.40;;;;;;;21.59;53.37;100647.23;;;;-59
2019/07/14 07:46:47;;;;;;;3.02;2.41;;;;;;;21.59;53.38;100645.61;;;;-59
2019/07/14 07:49:47;;;;;;;2.51;2.31;;;;;;;21.58;53.33;100644.41;;;;-60
2019/07/14 07:52:47;;;;;;;2.53;2.33;;;;;;;21.58;53.34;100644.91;;;;-59
2019/07/14 07:55:47;;;;;;;2.59;2.39;;;;;;;21.58;53.32;100645.21;;;;-60
2019/07/14 07:58:47;;;;;;;2.50;2.30;;;;;;;21.58;53.31;100641.88;;;;-58
2019/07/14 08:01:47;;;;;;;2.51;2.31;;;;;;;21.58;53.27;100645.72;;;;-58
2019/07/14 08:04:47;;;;;;;2.45;2.25;;;;;;;21.58;53.26;100645.14;;;;-60
2019/07/14 08:07:47;;;;;;;2.42;2.20;;;;;;;21.58;53.27;100639.36;;;;-60
2019/07/14 08:10:48;;;;;;;2.32;2.14;;;;;;;21.57;53.25;100642.45;;;;-60
2019/07/14 08:13:47;;;;;;;2.52;2.23;;;;;;;21.57;53.25;100644.36;;;;-59
2019/07/14 08:16:47;;;;;;;2.68;2.43;;;;;;;21.57;53.25;100650.02;;;;-58
2019/07/14 08:19:47;;;;;;;2.57;2.37;;;;;;;21.57;53.23;100653.44;;;;-58
2019/07/14 08:22:47;;;;;;;2.66;2.40;;;;;;;21.58;53.19;100654.48;;;;-59
2019/07/14 08:25:47;;;;;;;2.49;2.29;;;;;;;21.58;53.20;100652.03;;;;-58
2019/07/14 08:28:47;;;;;;;2.48;2.28;;;;;;;21.57;53.20;100653.34;;;;-59
2019/07/14 08:31:47;;;;;;;2.50;2.30;;;;;;;21.58;53.19;100650.11;;;;-59
2019/07/14 08:34:47;;;;;;;2.46;2.26;;;;;;;21.56;53.21;100649.13;;;;-60
2019/07/14 08:37:47;;;;;;;2.47;2.27;;;;;;;21.57;53.19;100653.94;;;;-59
2019/07/14 08:40:48;;;;;;;2.50;2.30;;;;;;;21.56;53.16;100655.58;;;;-58
2019/07/14 08:43:47;;;;;;;2.51;2.31;;;;;;;21.57;53.15;100657.37;;;;-52
2019/07/14 08:46:47;;;;;;;2.38;2.23;;;;;;;21.56;53.14;100654.84;;;;-52
2019/07/14 08:49:47;;;;;;;2.21;2.07;;;;;;;21.57;53.14;100656.63;;;;-51
2019/07/14 08:52:47;;;;;;;2.40;2.20;;;;;;;21.57;53.15;100661.23;;;;-52
2019/07/14 08:55:47;;;;;;;2.51;2.31;;;;;;;21.56;53.10;100661.06;;;;-59
2019/07/14 08:58:47;;;;;;;2.48;2.28;;;;;;;21.57;53.10;100667.39;;;;-58
2019/07/14 09:01:47;;;;;;;2.51;2.31;;;;;;;21.57;53.14;100666.78;;;;-53
2019/07/14 09:04:47;;;;;;;2.85;2.21;;;;;;;21.57;53.11;100669.84;;;;-59
2019/07/14 09:07:47;;;;;;;3.01;2.25;;;;;;;21.57;53.19;100667.89;;;;-61
2019/07/14 09:10:47;;;;;;;3.28;2.80;;;;;;;21.55;53.30;100666.47;;;;-52
2019/07/14 09:13:47;;;;;;;4.87;2.85;;;;;;;21.53;53.16;100669.81;;;;-52
2019/07/14 09:16:47;;;;;;;5.95;3.40;;;;;;;21.51;52.55;100665.97;;;;-52
2019/07/14 09:19:47;;;;;;;4.98;3.71;;;;;;;21.38;52.52;100671.73;;;;-53
2019/07/14 09:22:47;;;;;;;3.69;3.30;;;;;;;21.43;52.76;100670.86;;;;-53
2019/07/14 09:25:47;;;;;;;5.65;3.05;;;;;;;21.46;52.72;100669.81;;;;-53
2019/07/14 09:28:47;;;;;;;4.34;2.98;;;;;;;21.49;52.74;100673.80;;;;-53
2019/07/14 09:31:47;;;;;;;5.24;2.95;;;;;;;21.52;52.69;100670.95;;;;-51
2019/07/14 09:34:47;;;;;;;4.35;2.83;;;;;;;21.57;52.74;100670.75;;;;-53
2019/07/14 09:37:47;;;;;;;4.51;2.79;;;;;;;21.59;52.79;100672.61;;;;-53
2019/07/14 09:40:48;;;;;;;3.18;2.67;;;;;;;21.61;52.96;100675.41;;;;-49
2019/07/14 09:43:47;;;;;;;9.11;2.97;;;;;;;21.64;53.03;100677.61;;;;-48
2019/07/14 09:46:47;;;;;;;5.44;2.80;;;;;;;21.67;53.07;100673.99;;;;-48
2019/07/14 09:49:47;;;;;;;5.02;2.81;;;;;;;21.70;53.06;100675.22;;;;-47
2019/07/14 09:52:47;;;;;;;3.56;2.60;;;;;;;21.72;53.08;100677.83;;;;-50
2019/07/14 09:55:47;;;;;;;3.49;2.75;;;;;;;21.74;53.10;100676.89;;;;-51
2019/07/14 09:58:47;;;;;;;3.79;2.61;;;;;;;21.75;53.13;100676.49;;;;-49
2019/07/14 10:01:47;;;;;;;5.77;2.60;;;;;;;21.77;53.04;100684.30;;;;-48
2019/07/14 10:04:47;;;;;;;5.15;2.58;;;;;;;21.77;53.10;100687.16;;;;-46
2019/07/14 10:07:48;;;;;;;3.61;2.70;;;;;;;21.79;53.16;100684.55;;;;-48
2019/07/14 10:10:47;;;;;;;3.32;2.55;;;;;;;21.80;53.18;100689.30;;;;-47
2019/07/14 10:13:47;;;;;;;2.92;2.30;;;;;;;21.82;53.16;100686.01;;;;-48
2019/07/14 10:16:48;;;;;;;5.23;2.63;;;;;;;21.83;53.19;100684.37;;;;-45
2019/07/14 10:19:47;;;;;;;3.85;2.50;;;;;;;21.84;53.33;100685.08;;;;-47
2019/07/14 10:22:47;;;;;;;2.79;2.52;;;;;;;21.85;53.39;100691.00;;;;-48
2019/07/14 10:25:47;;;;;;;6.72;2.53;;;;;;;21.87;53.29;100685.70;;;;-51
2019/07/14 10:28:47;;;;;;;10.61;2.71;;;;;;;21.88;53.38;100687.41;;;;-48
2019/07/14 10:31:47;;;;;;;3.54;2.57;;;;;;;21.88;53.37;100685.23;;;;-48
2019/07/14 10:34:49;;;;;;;3.61;2.54;;;;;;;21.90;53.37;100689.17;;;;-51
2019/07/14 10:37:47;;;;;;;3.12;2.45;;;;;;;21.91;53.36;100686.02;;;;-49
2019/07/14 10:40:48;;;;;;;3.24;2.43;;;;;;;21.92;53.30;100686.39;;;;-47
2019/07/14 10:43:48;;;;;;;3.63;2.63;;;;;;;21.91;53.31;100687.53;;;;-47
2019/07/14 10:46:47;;;;;;;5.68;2.69;;;;;;;21.93;53.41;100688.45;;;;-51
2019/07/14 10:49:47;;;;;;;3.22;2.44;;;;;;;21.94;53.36;100686.77;;;;-50
2019/07/14 10:52:47;;;;;;;3.56;2.42;;;;;;;21.95;53.33;100684.05;;;;-50
2019/07/14 10:55:47;;;;;;;3.39;2.49;;;;;;;21.96;53.36;100685.09;;;;-49
2019/07/14 10:58:47;;;;;;;3.26;2.44;;;;;;;21.96;53.34;100682.61;;;;-49
2019/07/14 11:01:48;;;;;;;7.18;2.49;;;;;;;21.99;53.37;100683.02;;;;-48
2019/07/14 11:04:47;;;;;;;4.99;2.59;;;;;;;21.99;53.31;100682.19;;;;-46
2019/07/14 11:07:47;;;;;;;3.11;2.30;;;;;;;21.99;53.36;100680.00;;;;-48
2019/07/14 11:10:47;;;;;;;2.73;2.45;;;;;;;22.00;53.37;100674.59;;;;-49
2019/07/14 11:13:47;;;;;;;3.67;2.43;;;;;;;22.01;53.38;100677.28;;;;-51
2019/07/14 11:16:48;;;;;;;2.94;2.23;;;;;;;22.01;53.37;100676.77;;;;-49
2019/07/14 11:19:47;;;;;;;2.58;2.38;;;;;;;22.00;53.44;100673.31;;;;-51
2019/07/14 11:22:47;;;;;;;5.03;2.37;;;;;;;22.00;53.45;100672.64;;;;-48
2019/07/14 11:25:47;;;;;;;3.93;2.25;;;;;;;21.99;53.34;100668.23;;;;-59
2019/07/14 11:28:47;;;;;;;3.89;2.37;;;;;;;21.98;53.40;100668.92;;;;-58
2019/07/14 11:31:47;;;;;;;4.72;2.45;;;;;;;21.98;53.36;100667.11;;;;-60
2019/07/14 11:34:47;;;;;;;3.93;2.32;;;;;;;21.97;53.38;100668.69;;;;-59
2019/07/14 11:37:47;;;;;;;3.11;2.37;;;;;;;21.96;53.34;100665.16;;;;-58
2019/07/14 11:40:47;;;;;;;3.29;2.23;;;;;;;21.94;53.35;100664.88;;;;-59
2019/07/14 11:43:47;;;;;;;2.71;2.37;;;;;;;21.94;53.31;100656.37;;;;-59
2019/07/14 11:46:47;;;;;;;2.85;2.29;;;;;;;21.95;53.23;100655.36;;;;-60
2019/07/14 11:49:47;;;;;;;3.45;2.26;;;;;;;21.97;53.24;100650.66;;;;-61
2019/07/14 11:52:47;;;;;;;4.00;2.23;;;;;;;21.94;53.29;100647.92;;;;-62
2019/07/14 11:55:47;;;;;;;6.75;2.49;;;;;;;21.93;53.29;100641.36;;;;-62
2019/07/14 11:58:47;;;;;;;2.70;2.20;;;;;;;21.93;53.24;100641.33;;;;-52
2019/07/14 12:01:47;;;;;;;3.21;2.25;;;;;;;21.92;53.20;100640.08;;;;-52
2019/07/14 12:04:47;;;;;;;4.55;2.33;;;;;;;21.93;53.18;100639.18;;;;-52
2019/07/14 12:07:47;;;;;;;3.49;2.31;;;;;;;21.93;53.14;100633.53;;;;-52
2019/07/14 12:10:48;;;;;;;5.08;2.30;;;;;;;21.93;53.14;100635.95;;;;-52
2019/07/14 12:13:47;;;;;;;5.03;2.30;;;;;;;21.92;53.09;100631.30;;;;-52
2019/07/14 12:16:47;;;;;;;2.95;2.42;;;;;;;21.91;53.08;100630.46;;;;-52
2019/07/14 12:19:47;;;;;;;5.02;2.45;;;;;;;21.90;53.06;100631.27;;;;-52
2019/07/14 12:22:47;;;;;;;6.17;2.45;;;;;;;21.90;53.09;100626.69;;;;-52
2019/07/14 12:25:47;;;;;;;4.42;2.34;;;;;;;21.89;53.06;100624.00;;;;-52
2019/07/14 12:28:47;;;;;;;3.55;2.41;;;;;;;21.88;53.06;100620.94;;;;-52
2019/07/14 12:31:47;;;;;;;3.75;2.37;;;;;;;21.89;53.00;100620.36;;;;-52
2019/07/14 12:34:47;;;;;;;2.83;2.14;;;;;;;21.89;53.04;100619.02;;;;-53
2019/07/14 12:37:47;;;;;;;4.59;2.32;;;;;;;21.87;53.00;100620.56;;;;-52
2019/07/14 12:40:47;;;;;;;3.66;2.22;;;;;;;21.87;53.02;100622.75;;;;-52
2019/07/14 12:43:47;;;;;;;2.87;2.33;;;;;;;21.87;53.02;100624.33;;;;-53
2019/07/14 12:46:48;;;;;;;2.84;2.20;;;;;;;21.87;53.01;100615.48;;;;-49
2019/07/14 12:49:48;;;;;;;2.59;2.15;;;;;;;21.87;52.96;100613.66;;;;-47
2019/07/14 12:52:48;;;;;;;3.97;2.16;;;;;;;21.86;52.91;100609.83;;;;-48
2019/07/14 12:55:47;;;;;;;2.78;2.44;;;;;;;21.86;52.92;100611.95;;;;-48
2019/07/14 12:58:47;;;;;;;3.85;2.37;;;;;;;21.86;52.91;100604.72;;;;-62
2019/07/14 13:01:47;;;;;;;3.04;2.29;;;;;;;21.86;52.87;100607.41;;;;-60
2019/07/14 13:04:47;;;;;;;3.07;2.16;;;;;;;21.86;52.89;100608.48;;;;-61
2019/07/14 13:07:47;;;;;;;5.55;2.37;;;;;;;21.87;52.85;100607.58;;;;-62
2019/07/14 13:10:47;;;;;;;2.56;2.13;;;;;;;21.86;52.84;100604.62;;;;-61
2019/07/14 13:13:47;;;;;;;2.61;2.31;;;;;;;21.86;52.86;100610.27;;;;-62
2019/07/14 13:16:47;;;;;;;2.69;2.29;;;;;;;21.85;52.89;100604.41;;;;-61
2019/07/14 13:19:47;;;;;;;2.40;2.19;;;;;;;21.84;52.93;100601.28;;;;-63
2019/07/14 13:22:47;;;;;;;2.44;2.23;;;;;;;21.84;52.90;100595.46;;;;-62
2019/07/14 13:25:47;;;;;;;3.21;2.11;;;;;;;21.84;52.85;100595.70;;;;-61
2019/07/14 13:28:47;;;;;;;2.31;2.10;;;;;;;21.85;52.88;100597.34;;;;-61
2019/07/14 13:31:47;;;;;;;2.61;2.28;;;;;;;21.84;52.82;100597.31;;;;-62
2019/07/14 13:34:47;;;;;;;3.20;2.20;;;;;;;21.83;52.82;100594.58;;;;-61
2019/07/14 13:37:47;;;;;;;2.74;2.09;;;;;;;21.83;52.84;100600.47;;;;-61
2019/07/14 13:40:47;;;;;;;2.43;2.23;;;;;;;21.83;52.84;100596.77;;;;-51
2019/07/14 13:43:47;;;;;;;2.25;2.05;;;;;;;21.83;52.80;100593.23;;;;-52
2019/07/14 13:46:47;;;;;;;2.57;2.15;;;;;;;21.83;52.83;100592.00;;;;-51
2019/07/14 13:49:47;;;;;;;2.34;2.14;;;;;;;21.82;52.76;100588.09;;;;-53
2019/07/14 13:52:47;;;;;;;2.48;2.02;;;;;;;21.83;52.77;100591.62;;;;-52
2019/07/14 13:55:47;;;;;;;2.27;2.07;;;;;;;21.82;52.76;100584.29;;;;-52
2019/07/14 13:58:47;;;;;;;2.46;2.26;;;;;;;21.83;52.77;100582.31;;;;-52
2019/07/14 14:01:47;;;;;;;4.49;2.08;;;;;;;21.82;52.79;100579.85;;;;-53
2019/07/14 14:04:47;;;;;;;2.79;2.09;;;;;;;21.81;52.76;100572.59;;;;-52
2019/07/14 14:07:47;;;;;;;2.49;2.29;;;;;;;21.82;52.77;100570.33;;;;-53
2019/07/14 14:10:47;;;;;;;2.71;2.00;;;;;;;21.82;52.72;100579.08;;;;-52
2019/07/14 14:13:47;;;;;;;2.13;1.96;;;;;;;21.82;52.72;100574.98;;;;-51
2019/07/14 14:16:47;;;;;;;2.65;2.03;;;;;;;21.81;52.75;100573.49;;;;-51
2019/07/14 14:19:47;;;;;;;2.22;2.07;;;;;;;21.82;52.72;100572.69;;;;-52
2019/07/14 14:22:47;;;;;;;2.33;2.13;;;;;;;21.81;52.67;100574.27;;;;-52
2019/07/14 14:25:47;;;;;;;2.04;1.88;;;;;;;21.80;52.73;100572.11;;;;-52
2019/07/14 14:28:47;;;;;;;2.03;1.93;;;;;;;21.80;52.73;100573.05;;;;-52
2019/07/14 14:31:47;;;;;;;2.57;2.17;;;;;;;21.81;52.90;100568.22;;;;-51
2019/07/14 14:34:47;;;;;;;3.17;2.19;;;;;;;21.84;52.99;100570.17;;;;-54
2019/07/14 14:37:47;;;;;;;3.41;2.20;;;;;;;21.82;52.99;100572.29;;;;-55
2019/07/14 14:40:47;;;;;;;6.78;2.09;;;;;;;21.83;52.98;100568.80;;;;-54
2019/07/14 14:43:47;;;;;;;2.31;2.11;;;;;;;21.82;52.93;100569.59;;;;-54
2019/07/14 14:46:47;;;;;;;3.33;2.21;;;;;;;21.83;53.00;100565.66;;;;-55
2019/07/14 14:49:47;;;;;;;2.55;2.21;;;;;;;21.82;52.85;100567.58;;;;-55
2019/07/14 14:52:47;;;;;;;2.13;2.01;;;;;;;21.81;52.91;100565.36;;;;-54
2019/07/14 14:55:47;;;;;;;2.37;2.17;;;;;;;21.81;52.84;100571.31;;;;-55
2019/07/14 14:58:47;;;;;;;2.51;2.12;;;;;;;21.82;52.82;100573.30;;;;-53
2019/07/14 15:01:47;;;;;;;2.86;2.16;;;;;;;21.81;52.91;100575.11;;;;-52
2019/07/14 15:04:47;;;;;;;2.31;2.11;;;;;;;21.85;52.93;100570.38;;;;-53
2019/07/14 15:07:47;;;;;;;3.53;2.03;;;;;;;21.84;53.11;100576.53;;;;-52
2019/07/14 15:10:47;;;;;;;3.04;2.25;;;;;;;21.87;53.14;100574.05;;;;-51
2019/07/14 15:13:47;;;;;;;5.25;2.11;;;;;;;21.86;53.15;100575.80;;;;-56
2019/07/14 15:16:47;;;;;;;10.30;2.19;;;;;;;21.89;53.28;100572.44;;;;-52
2019/07/14 15:19:47;;;;;;;5.49;2.23;;;;;;;21.90;53.35;100571.91;;;;-52
2019/07/14 15:22:47;;;;;;;3.81;2.23;;;;;;;21.94;53.42;100573.27;;;;-52
2019/07/14 15:25:47;;;;;;;5.71;2.22;;;;;;;21.96;53.47;100568.96;;;;-51
2019/07/14 15:28:47;;;;;;;5.60;2.25;;;;;;;21.98;53.47;100568.87;;;;-51
2019/07/14 15:31:47;;;;;;;7.23;2.37;;;;;;;22.00;53.46;100567.02;;;;-51
2019/07/14 15:34:47;;;;;;;5.52;2.55;;;;;;;22.01;53.55;100566.38;;;;-51
2019/07/14 15:37:47;;;;;;;5.77;2.83;;;;;;;22.02;53.55;100571.06;;;;-51
2019/07/14 15:40:47;;;;;;;9.36;2.63;;;;;;;22.02;53.56;100564.73;;;;-52
2019/07/14 15:43:48;;;;;;;8.65;2.75;;;;;;;22.03;53.65;100565.78;;;;-48
2019/07/14 15:46:48;;;;;;;6.87;2.63;;;;;;;22.04;53.65;100565.22;;;;-49
2019/07/14 15:49:48;;;;;;;8.41;2.73;;;;;;;22.04;53.63;100561.38;;;;-49
2019/07/14 15:52:47;;;;;;;7.15;2.79;;;;;;;22.05;53.61;100562.33;;;;-48
2019/07/14 15:55:47;;;;;;;8.14;2.61;;;;;;;22.06;53.59;100561.59;;;;-50
2019/07/14 15:58:48;;;;;;;5.95;2.73;;;;;;;22.06;53.62;100552.00;;;;-49
2019/07/14 16:01:48;;;;;;;6.73;2.57;;;;;;;22.07;53.55;100552.81;;;;-51
2019/07/14 16:04:48;;;;;;;6.59;2.47;;;;;;;22.08;53.61;100549.65;;;;-49
2019/07/14 16:07:47;;;;;;;8.82;2.99;;;;;;;22.09;53.59;100558.77;;;;-46
2019/07/14 16:10:47;;;;;;;20.41;3.28;;;;;;;22.10;53.72;100557.05;;;;-50
2019/07/14 16:13:47;;;;;;;9.99;3.25;;;;;;;22.11;53.73;100558.09;;;;-62
2019/07/14 16:16:47;;;;;;;13.28;3.09;;;;;;;22.11;53.68;100561.80;;;;-64
2019/07/14 16:19:47;;;;;;;15.91;3.28;;;;;;;22.12;53.78;100562.67;;;;-63
2019/07/14 16:22:47;;;;;;;11.55;3.08;;;;;;;22.13;53.72;100561.59;;;;-63
2019/07/14 16:25:47;;;;;;;13.20;2.97;;;;;;;22.13;53.63;100562.87;;;;-61
2019/07/14 16:28:47;;;;;;;9.11;2.95;;;;;;;22.13;53.54;100563.78;;;;-61
2019/07/14 16:31:47;;;;;;;9.93;3.12;;;;;;;22.14;53.54;100565.27;;;;-62
2019/07/14 16:34:47;;;;;;;10.73;2.86;;;;;;;22.15;53.57;100566.45;;;;-64
2019/07/14 16:37:48;;;;;;;8.19;2.89;;;;;;;22.15;53.50;100567.55;;;;-48
2019/07/14 16:40:48;;;;;;;9.78;2.72;;;;;;;22.13;53.53;100566.41;;;;-48